sensor_id;sensor_type;location;lat;lon;timestamp;pressure;altitude;pressure_sealevel;temperature;humidity
18201;BME280;9226;47.858;9.594;2023-07-29T00:01:13;94940.84;;;20.15;76.69
18201;BME280;9226;47.858;9.594;2023-07-29T00:03:38;94931.28;;;20.12;76.90
18201;BME280;9226;47.858;9.594;2023-07-29T00:06:04;94930.91;;;20.15;76.96
18201;BME280;9226;47.858;9.594;2023-07-29T00:08:29;94930.50;;;20.18;76.67
18201;BME280;9226;47.858;9.594;2023-07-29T00:10:54;94942.88;;;20.13;77.27
18201;BME280;9226;47.858;9.594;2023-07-29T00:13:20;94927.38;;;20.15;77.17
18201;BME280;9226;47.858;9.594;2023-07-29T00:15:45;94929.41;;;20.13;78.16
18201;BME280;9226;47.858;9.594;2023-07-29T00:18:10;94935.47;;;20.15;78.34
18201;BME280;9226;47.858;9.594;2023-07-29T00:20:36;94931.72;;;20.16;78.03
18201;BME280;9226;47.858;9.594;2023-07-29T00:23:01;94925.91;;;20.12;78.57
18201;BME280;9226;47.858;9.594;2023-07-29T00:25:27;94928.41;;;20.14;78.58
18201;BME280;9226;47.858;9.594;2023-07-29T00:27:55;94928.41;;;20.14;78.30
18201;BME280;9226;47.858;9.594;2023-07-29T00:30:21;94917.44;;;20.15;78.42
18201;BME280;9226;47.858;9.594;2023-07-29T00:32:46;94924.63;;;20.08;79.10
18201;BME280;9226;47.858;9.594;2023-07-29T00:35:12;94915.31;;;20.11;78.94
18201;BME280;9226;47.858;9.594;2023-07-29T00:37:38;94907.88;;;20.13;78.78
18201;BME280;9226;47.858;9.594;2023-07-29T00:40:13;94917.97;;;20.04;79.40
18201;BME280;9226;47.858;9.594;2023-07-29T00:42:39;94911.34;;;20.06;79.21
18201;BME280;9226;47.858;9.594;2023-07-29T00:45:05;94915.09;;;20.05;79.44
18201;BME280;9226;47.858;9.594;2023-07-29T00:47:32;94908.66;;;20.06;79.20
18201;BME280;9226;47.858;9.594;2023-07-29T00:49:58;94896.44;;;20.04;79.37
18201;BME280;9226;47.858;9.594;2023-07-29T00:52:23;94897.66;;;20.01;79.24
18201;BME280;9226;47.858;9.594;2023-07-29T00:54:49;94888.72;;;19.94;80.21
18201;BME280;9226;47.858;9.594;2023-07-29T00:57:15;94905.13;;;19.78;81.03
18201;BME280;9226;47.858;9.594;2023-07-29T00:59:41;94893.00;;;19.88;79.59
18201;BME280;9226;47.858;9.594;2023-07-29T01:02:07;94905.84;;;19.86;80.10
18201;BME280;9226;47.858;9.594;2023-07-29T01:04:33;94890.50;;;19.87;80.12
18201;BME280;9226;47.858;9.594;2023-07-29T01:07:07;94898.41;;;19.88;80.08
18201;BME280;9226;47.858;9.594;2023-07-29T01:09:43;94902.38;;;19.93;79.79
18201;BME280;9226;47.858;9.594;2023-07-29T01:12:21;94905.88;;;19.93;79.64
18201;BME280;9226;47.858;9.594;2023-07-29T01:15:01;94904.59;;;19.89;80.12
18201;BME280;9226;47.858;9.594;2023-07-29T01:17:36;94892.19;;;19.88;79.94
18201;BME280;9226;47.858;9.594;2023-07-29T01:20:08;94900.66;;;19.85;80.44
18201;BME280;9226;47.858;9.594;2023-07-29T01:22:35;94896.28;;;19.84;80.51
18201;BME280;9226;47.858;9.594;2023-07-29T01:25:02;94893.59;;;19.84;80.42
18201;BME280;9226;47.858;9.594;2023-07-29T01:27:28;94897.72;;;19.80;80.56
18201;BME280;9226;47.858;9.594;2023-07-29T01:29:54;94895.66;;;19.82;80.45
18201;BME280;9226;47.858;9.594;2023-07-29T01:32:43;94898.34;;;19.82;80.11
18201;BME280;9226;47.858;9.594;2023-07-29T01:35:32;94901.44;;;19.79;80.55
18201;BME280;9226;47.858;9.594;2023-07-29T01:38:20;94900.13;;;19.75;80.66
18201;BME280;9226;47.858;9.594;2023-07-29T01:40:49;94908.19;;;19.75;80.22
18201;BME280;9226;47.858;9.594;2023-07-29T01:43:16;94906.44;;;19.82;79.92
18201;BME280;9226;47.858;9.594;2023-07-29T01:45:44;94897.81;;;19.71;80.33
18201;BME280;9226;47.858;9.594;2023-07-29T01:48:09;94895.78;;;19.74;80.18
18201;BME280;9226;47.858;9.594;2023-07-29T01:50:34;94899.25;;;19.67;80.60
18201;BME280;9226;47.858;9.594;2023-07-29T01:53:00;94892.22;;;19.73;80.37
18201;BME280;9226;47.858;9.594;2023-07-29T01:55:26;94886.63;;;19.68;80.65
18201;BME280;9226;47.858;9.594;2023-07-29T01:57:51;94884.94;;;19.67;80.55
18201;BME280;9226;47.858;9.594;2023-07-29T02:00:18;94883.47;;;19.64;80.35
18201;BME280;9226;47.858;9.594;2023-07-29T02:02:44;94882.44;;;19.65;80.68
18201;BME280;9226;47.858;9.594;2023-07-29T02:05:09;94879.31;;;19.62;80.87
18201;BME280;9226;47.858;9.594;2023-07-29T02:07:35;94877.44;;;19.62;80.34
18201;BME280;9226;47.858;9.594;2023-07-29T02:10:00;94867.91;;;19.60;80.39
18201;BME280;9226;47.858;9.594;2023-07-29T02:12:25;94878.88;;;19.58;80.40
18201;BME280;9226;47.858;9.594;2023-07-29T02:14:51;94876.19;;;19.58;80.34
18201;BME280;9226;47.858;9.594;2023-07-29T02:17:16;94883.22;;;19.59;80.22
18201;BME280;9226;47.858;9.594;2023-07-29T02:19:42;94870.56;;;19.53;80.58
18201;BME280;9226;47.858;9.594;2023-07-29T02:22:07;94875.09;;;19.52;80.64
18201;BME280;9226;47.858;9.594;2023-07-29T02:24:32;94867.03;;;19.52;80.37
18201;BME280;9226;47.858;9.594;2023-07-29T02:26:58;94861.41;;;19.47;80.32
18201;BME280;9226;47.858;9.594;2023-07-29T02:29:23;94861.00;;;19.50;79.50
18201;BME280;9226;47.858;9.594;2023-07-29T02:31:50;94852.13;;;19.50;79.60
18201;BME280;9226;47.858;9.594;2023-07-29T02:34:15;94853.13;;;19.49;79.78
18201;BME280;9226;47.858;9.594;2023-07-29T02:36:41;94851.66;;;19.46;79.86
18201;BME280;9226;47.858;9.594;2023-07-29T02:39:06;94859.81;;;19.31;80.72
18201;BME280;9226;47.858;9.594;2023-07-29T02:41:31;94848.22;;;19.31;80.22
18201;BME280;9226;47.858;9.594;2023-07-29T02:43:57;94850.25;;;19.29;80.42
18201;BME280;9226;47.858;9.594;2023-07-29T02:46:22;94844.25;;;19.27;80.75
18201;BME280;9226;47.858;9.594;2023-07-29T02:48:47;94841.94;;;19.24;80.53
18201;BME280;9226;47.858;9.594;2023-07-29T02:51:13;94837.41;;;19.24;80.45
18201;BME280;9226;47.858;9.594;2023-07-29T02:53:38;94832.22;;;19.23;80.48
18201;BME280;9226;47.858;9.594;2023-07-29T02:56:04;94835.75;;;19.23;80.65
18201;BME280;9226;47.858;9.594;2023-07-29T02:58:31;94833.25;;;19.22;80.69
18201;BME280;9226;47.858;9.594;2023-07-29T03:01:01;94826.63;;;19.24;80.59
18201;BME280;9226;47.858;9.594;2023-07-29T03:03:27;94831.63;;;19.27;80.15
18201;BME280;9226;47.858;9.594;2023-07-29T03:06:06;94832.78;;;19.18;81.23
18201;BME280;9226;47.858;9.594;2023-07-29T03:08:32;94840.09;;;19.24;80.69
18201;BME280;9226;47.858;9.594;2023-07-29T03:10:58;94837.00;;;19.27;80.28
18201;BME280;9226;47.858;9.594;2023-07-29T03:13:24;94836.75;;;19.22;81.13
18201;BME280;9226;47.858;9.594;2023-07-29T03:15:49;94841.31;;;19.22;80.92
18201;BME280;9226;47.858;9.594;2023-07-29T03:18:15;94851.88;;;19.23;80.74
18201;BME280;9226;47.858;9.594;2023-07-29T03:20:41;94868.78;;;19.17;81.78
18201;BME280;9226;47.858;9.594;2023-07-29T03:23:06;94858.91;;;19.24;81.01
18201;BME280;9226;47.858;9.594;2023-07-29T03:25:32;94863.84;;;19.21;81.78
18201;BME280;9226;47.858;9.594;2023-07-29T03:27:58;94855.59;;;19.22;81.62
18201;BME280;9226;47.858;9.594;2023-07-29T03:30:23;94844.50;;;19.32;80.63
18201;BME280;9226;47.858;9.594;2023-07-29T03:32:49;94853.63;;;19.31;81.06
18201;BME280;9226;47.858;9.594;2023-07-29T03:35:15;94845.75;;;19.29;80.84
18201;BME280;9226;47.858;9.594;2023-07-29T03:37:41;94848.22;;;19.31;80.95
18201;BME280;9226;47.858;9.594;2023-07-29T03:40:07;94852.75;;;19.30;80.65
18201;BME280;9226;47.858;9.594;2023-07-29T03:42:34;94851.75;;;19.31;80.55
18201;BME280;9226;47.858;9.594;2023-07-29T03:44:59;94840.38;;;19.29;80.32
18201;BME280;9226;47.858;9.594;2023-07-29T03:47:24;94840.59;;;19.34;79.80
18201;BME280;9226;47.858;9.594;2023-07-29T03:49:50;94830.84;;;19.33;80.14
18201;BME280;9226;47.858;9.594;2023-07-29T03:52:15;94832.16;;;19.38;79.64
18201;BME280;9226;47.858;9.594;2023-07-29T03:54:40;94829.84;;;19.34;79.80
18201;BME280;9226;47.858;9.594;2023-07-29T03:57:06;94840.41;;;19.36;79.19
18201;BME280;9226;47.858;9.594;2023-07-29T03:59:32;94832.16;;;19.38;79.74
18201;BME280;9226;47.858;9.594;2023-07-29T04:01:57;94830.03;;;19.33;79.32
18201;BME280;9226;47.858;9.594;2023-07-29T04:04:23;94830.84;;;19.33;79.52
18201;BME280;9226;47.858;9.594;2023-07-29T04:06:49;94829.66;;;19.36;79.41
18201;BME280;9226;47.858;9.594;2023-07-29T04:09:15;94824.47;;;19.34;79.46
18201;BME280;9226;47.858;9.594;2023-07-29T04:11:40;94820.75;;;19.36;79.69
18201;BME280;9226;47.858;9.594;2023-07-29T04:14:05;94821.78;;;19.34;79.55
18201;BME280;9226;47.858;9.594;2023-07-29T04:16:31;94827.16;;;19.34;79.77
18201;BME280;9226;47.858;9.594;2023-07-29T04:18:56;94825.28;;;19.35;79.83
18201;BME280;9226;47.858;9.594;2023-07-29T04:21:22;94830.84;;;19.33;80.16
18201;BME280;9226;47.858;9.594;2023-07-29T04:23:47;94826.13;;;19.36;80.24
18201;BME280;9226;47.858;9.594;2023-07-29T04:26:12;94841.88;;;19.39;79.89
18201;BME280;9226;47.858;9.594;2023-07-29T04:28:38;94847.47;;;19.37;79.83
18201;BME280;9226;47.858;9.594;2023-07-29T04:31:03;94847.03;;;19.40;79.83
18201;BME280;9226;47.858;9.594;2023-07-29T04:33:30;94863.38;;;19.39;80.42
18201;BME280;9226;47.858;9.594;2023-07-29T04:35:56;94905.66;;;19.45;80.17
18201;BME280;9226;47.858;9.594;2023-07-29T04:38:21;94937.63;;;19.33;81.27
18201;BME280;9226;47.858;9.594;2023-07-29T04:40:49;94906.56;;;19.30;82.16
18201;BME280;9226;47.858;9.594;2023-07-29T04:43:14;94871.28;;;19.19;83.07
18201;BME280;9226;47.858;9.594;2023-07-29T04:45:43;94878.38;;;19.05;84.13
18201;BME280;9226;47.858;9.594;2023-07-29T04:48:09;94877.28;;;18.99;85.45
18201;BME280;9226;47.858;9.594;2023-07-29T04:50:34;94882.41;;;18.79;87.47
18201;BME280;9226;47.858;9.594;2023-07-29T04:52:59;94881.97;;;18.90;85.73
18201;BME280;9226;47.858;9.594;2023-07-29T04:55:25;94880.56;;;18.79;87.12
18201;BME280;9226;47.858;9.594;2023-07-29T04:57:50;94889.31;;;18.67;88.23
18201;BME280;9226;47.858;9.594;2023-07-29T05:00:16;94895.97;;;18.71;87.44
18201;BME280;9226;47.858;9.594;2023-07-29T05:02:41;94889.69;;;18.63;87.81
18201;BME280;9226;47.858;9.594;2023-07-29T05:05:07;94899.59;;;18.63;88.09
18201;BME280;9226;47.858;9.594;2023-07-29T05:07:33;94896.63;;;18.58;88.50
18201;BME280;9226;47.858;9.594;2023-07-29T05:09:58;94885.06;;;18.57;88.50
18201;BME280;9226;47.858;9.594;2023-07-29T05:12:23;94898.66;;;18.56;88.91
18201;BME280;9226;47.858;9.594;2023-07-29T05:14:49;94895.69;;;18.66;87.55
18201;BME280;9226;47.858;9.594;2023-07-29T05:17:14;94878.09;;;18.63;88.13
18201;BME280;9226;47.858;9.594;2023-07-29T05:19:40;94885.22;;;18.71;87.23
18201;BME280;9226;47.858;9.594;2023-07-29T05:22:05;94866.59;;;18.69;87.71
18201;BME280;9226;47.858;9.594;2023-07-29T05:24:30;94872.16;;;18.68;87.97
18201;BME280;9226;47.858;9.594;2023-07-29T05:26:56;94880.22;;;18.68;88.15
18201;BME280;9226;47.858;9.594;2023-07-29T05:29:21;94886.94;;;18.78;87.30
18201;BME280;9226;47.858;9.594;2023-07-29T05:31:47;94887.63;;;18.66;89.59
18201;BME280;9226;47.858;9.594;2023-07-29T05:34:12;94886.34;;;18.61;90.61
18201;BME280;9226;47.858;9.594;2023-07-29T05:36:37;94877.00;;;18.57;92.37
18201;BME280;9226;47.858;9.594;2023-07-29T05:39:04;94879.00;;;18.85;89.62
18201;BME280;9226;47.858;9.594;2023-07-29T05:41:29;94885.28;;;18.92;89.28
18201;BME280;9226;47.858;9.594;2023-07-29T05:43:55;94891.69;;;18.91;90.56
18201;BME280;9226;47.858;9.594;2023-07-29T05:46:20;94887.22;;;18.98;89.14
18201;BME280;9226;47.858;9.594;2023-07-29T05:48:45;94881.97;;;19.12;88.31
18201;BME280;9226;47.858;9.594;2023-07-29T05:51:11;94878.81;;;19.08;89.34
18201;BME280;9226;47.858;9.594;2023-07-29T05:53:36;94884.16;;;19.23;88.48
18201;BME280;9226;47.858;9.594;2023-07-29T05:56:02;94887.88;;;19.22;88.78
18201;BME280;9226;47.858;9.594;2023-07-29T05:58:27;94886.09;;;19.29;88.64
18201;BME280;9226;47.858;9.594;2023-07-29T06:00:53;94884.66;;;19.33;88.52
18201;BME280;9226;47.858;9.594;2023-07-29T06:03:18;94890.50;;;19.37;89.39
18201;BME280;9226;47.858;9.594;2023-07-29T06:05:43;94892.97;;;19.39;88.82
18201;BME280;9226;47.858;9.594;2023-07-29T06:08:09;94897.19;;;19.48;88.61
18201;BME280;9226;47.858;9.594;2023-07-29T06:10:34;94906.94;;;19.49;88.43
18201;BME280;9226;47.858;9.594;2023-07-29T06:13:00;94893.25;;;19.44;89.47
18201;BME280;9226;47.858;9.594;2023-07-29T06:15:25;94907.09;;;19.41;90.24
18201;BME280;9226;47.858;9.594;2023-07-29T06:17:51;94911.75;;;19.53;89.09
18201;BME280;9226;47.858;9.594;2023-07-29T06:20:16;94902.56;;;19.48;89.61
18201;BME280;9226;47.858;9.594;2023-07-29T06:22:41;94899.88;;;19.48;89.31
18201;BME280;9226;47.858;9.594;2023-07-29T06:25:08;94896.63;;;19.52;89.13
18201;BME280;9226;47.858;9.594;2023-07-29T06:27:33;94896.28;;;19.62;88.54
18201;BME280;9226;47.858;9.594;2023-07-29T06:29:59;94900.25;;;19.66;88.73
18201;BME280;9226;47.858;9.594;2023-07-29T06:32:24;94909.34;;;19.65;90.29
18201;BME280;9226;47.858;9.594;2023-07-29T06:34:50;94914.88;;;19.79;89.36
18201;BME280;9226;47.858;9.594;2023-07-29T06:37:17;94915.63;;;19.73;89.98
18201;BME280;9226;47.858;9.594;2023-07-29T06:39:42;94905.69;;;19.73;90.71
18201;BME280;9226;47.858;9.594;2023-07-29T06:42:07;94911.66;;;19.90;91.13
18201;BME280;9226;47.858;9.594;2023-07-29T06:44:33;94919.72;;;20.18;92.10
18201;BME280;9226;47.858;9.594;2023-07-29T06:46:58;94914.09;;;20.48;90.51
18201;BME280;9226;47.858;9.594;2023-07-29T06:49:24;94908.75;;;20.55;88.23
18201;BME280;9226;47.858;9.594;2023-07-29T06:51:49;94914.88;;;20.70;87.92
18201;BME280;9226;47.858;9.594;2023-07-29T06:54:16;94918.47;;;20.91;87.78
18201;BME280;9226;47.858;9.594;2023-07-29T06:56:42;94921.56;;;21.56;88.33
18201;BME280;9226;47.858;9.594;2023-07-29T06:59:07;94912.84;;;21.74;83.17
18201;BME280;9226;47.858;9.594;2023-07-29T07:01:33;94917.81;;;22.31;82.22
18201;BME280;9226;47.858;9.594;2023-07-29T07:03:59;94916.44;;;22.87;81.50
18201;BME280;9226;47.858;9.594;2023-07-29T07:06:24;94920.06;;;23.19;79.27
18201;BME280;9226;47.858;9.594;2023-07-29T07:08:50;94915.34;;;23.72;79.46
18201;BME280;9226;47.858;9.594;2023-07-29T07:11:16;94902.50;;;23.92;74.08
18201;BME280;9226;47.858;9.594;2023-07-29T07:13:41;94917.66;;;24.00;72.56
18201;BME280;9226;47.858;9.594;2023-07-29T07:16:07;94913.25;;;24.24;71.81
18201;BME280;9226;47.858;9.594;2023-07-29T07:18:32;94916.09;;;24.36;70.45
18201;BME280;9226;47.858;9.594;2023-07-29T07:20:58;94927.75;;;24.36;71.71
18201;BME280;9226;47.858;9.594;2023-07-29T07:23:23;94920.25;;;24.38;70.15
18201;BME280;9226;47.858;9.594;2023-07-29T07:25:48;94924.19;;;24.61;70.74
18201;BME280;9226;47.858;9.594;2023-07-29T07:28:14;94920.06;;;24.77;70.21
18201;BME280;9226;47.858;9.594;2023-07-29T07:30:40;94917.56;;;24.76;68.78
18201;BME280;9226;47.858;9.594;2023-07-29T07:33:09;94916.06;;;24.61;68.65
18201;BME280;9226;47.858;9.594;2023-07-29T07:35:34;94916.44;;;24.83;69.09
18201;BME280;9226;47.858;9.594;2023-07-29T07:38:00;94907.09;;;24.79;69.27
18201;BME280;9226;47.858;9.594;2023-07-29T07:40:29;94901.13;;;24.89;70.26
18201;BME280;9226;47.858;9.594;2023-07-29T07:42:54;94911.06;;;24.95;69.20
18201;BME280;9226;47.858;9.594;2023-07-29T07:45:20;94904.59;;;24.96;69.10
18201;BME280;9226;47.858;9.594;2023-07-29T07:47:45;94907.72;;;24.63;67.92
18201;BME280;9226;47.858;9.594;2023-07-29T07:50:11;94896.56;;;25.20;67.01
18201;BME280;9226;47.858;9.594;2023-07-29T07:52:36;94890.63;;;25.30;66.06
18201;BME280;9226;47.858;9.594;2023-07-29T07:55:02;94896.94;;;25.54;66.76
18201;BME280;9226;47.858;9.594;2023-07-29T07:57:27;94882.47;;;25.83;64.38
18201;BME280;9226;47.858;9.594;2023-07-29T07:59:53;94896.91;;;25.96;63.86
18201;BME280;9226;47.858;9.594;2023-07-29T08:02:18;94893.34;;;25.83;62.44
18201;BME280;9226;47.858;9.594;2023-07-29T08:04:44;94896.53;;;25.69;61.97
18201;BME280;9226;47.858;9.594;2023-07-29T08:07:09;94905.13;;;25.66;63.75
18201;BME280;9226;47.858;9.594;2023-07-29T08:09:35;94903.41;;;25.95;63.74
18201;BME280;9226;47.858;9.594;2023-07-29T08:12:00;94904.91;;;26.33;62.17
18201;BME280;9226;47.858;9.594;2023-07-29T08:14:26;94905.00;;;26.62;60.92
18201;BME280;9226;47.858;9.594;2023-07-29T08:16:52;94904.19;;;26.73;59.86
18201;BME280;9226;47.858;9.594;2023-07-29T08:19:17;94906.56;;;26.69;59.20
18201;BME280;9226;47.858;9.594;2023-07-29T08:21:42;94915.66;;;26.51;59.36
18201;BME280;9226;47.858;9.594;2023-07-29T08:24:08;94909.03;;;26.59;58.84
18201;BME280;9226;47.858;9.594;2023-07-29T08:26:33;94903.84;;;26.46;58.42
18201;BME280;9226;47.858;9.594;2023-07-29T08:28:59;94905.94;;;26.44;59.29
18201;BME280;9226;47.858;9.594;2023-07-29T08:31:24;94906.19;;;26.66;60.02
18201;BME280;9226;47.858;9.594;2023-07-29T08:33:49;94908.53;;;26.86;60.93
18201;BME280;9226;47.858;9.594;2023-07-29T08:36:15;94905.34;;;27.30;60.15
18201;BME280;9226;47.858;9.594;2023-07-29T08:38:41;94908.88;;;27.30;58.80
18201;BME280;9226;47.858;9.594;2023-07-29T08:46:38;94896.59;;;27.56;56.76
18201;BME280;9226;47.858;9.594;2023-07-29T08:49:04;94902.09;;;27.90;57.68
18201;BME280;9226;47.858;9.594;2023-07-29T08:51:31;94899.78;;;27.82;54.30
18201;BME280;9226;47.858;9.594;2023-07-29T08:53:58;94896.50;;;28.14;54.34
18201;BME280;9226;47.858;9.594;2023-07-29T08:56:24;94897.69;;;28.18;54.82
18201;BME280;9226;47.858;9.594;2023-07-29T08:58:49;94899.28;;;28.53;55.44
18201;BME280;9226;47.858;9.594;2023-07-29T09:01:15;94889.91;;;28.83;53.97
18201;BME280;9226;47.858;9.594;2023-07-29T09:03:41;94905.66;;;28.98;54.26
18201;BME280;9226;47.858;9.594;2023-07-29T09:06:07;94897.47;;;29.20;52.75
18201;BME280;9226;47.858;9.594;2023-07-29T09:08:33;94901.28;;;29.19;52.09
18201;BME280;9226;47.858;9.594;2023-07-29T09:10:59;94894.31;;;29.11;50.77
18201;BME280;9226;47.858;9.594;2023-07-29T09:13:25;94895.47;;;28.93;51.12
18201;BME280;9226;47.858;9.594;2023-07-29T09:15:54;94899.41;;;28.80;49.82
18201;BME280;9226;47.858;9.594;2023-07-29T09:18:20;94899.66;;;28.79;51.63
18201;BME280;9226;47.858;9.594;2023-07-29T09:20:47;94897.94;;;28.56;52.05
18201;BME280;9226;47.858;9.594;2023-07-29T09:23:13;94902.91;;;28.76;52.12
18201;BME280;9226;47.858;9.594;2023-07-29T09:25:39;94903.72;;;28.98;51.94
18201;BME280;9226;47.858;9.594;2023-07-29T09:28:12;94896.75;;;28.85;50.84
18201;BME280;9226;47.858;9.594;2023-07-29T09:30:39;94892.78;;;28.76;50.21
18201;BME280;9226;47.858;9.594;2023-07-29T09:33:05;94894.53;;;29.04;51.86
18201;BME280;9226;47.858;9.594;2023-07-29T09:35:33;94902.78;;;29.10;50.68
18201;BME280;9226;47.858;9.594;2023-07-29T09:37:59;94897.66;;;29.13;51.86
18201;BME280;9226;47.858;9.594;2023-07-29T09:40:25;94897.16;;;29.38;51.88
18201;BME280;9226;47.858;9.594;2023-07-29T09:42:51;94879.97;;;29.43;50.25
18201;BME280;9226;47.858;9.594;2023-07-29T09:45:26;94890.50;;;29.29;48.88
18201;BME280;9226;47.858;9.594;2023-07-29T09:47:53;94878.09;;;29.21;50.36
18201;BME280;9226;47.858;9.594;2023-07-29T09:50:20;94874.44;;;29.38;51.15
18201;BME280;9226;47.858;9.594;2023-07-29T09:52:48;94876.53;;;29.53;49.52
18201;BME280;9226;47.858;9.594;2023-07-29T09:55:18;94891.09;;;29.36;48.58
18201;BME280;9226;47.858;9.594;2023-07-29T09:57:44;94889.56;;;29.46;49.73
18201;BME280;9226;47.858;9.594;2023-07-29T10:00:13;94890.78;;;29.60;49.62
18201;BME280;9226;47.858;9.594;2023-07-29T10:02:43;94887.97;;;29.77;49.32
18201;BME280;9226;47.858;9.594;2023-07-29T10:05:09;94888.78;;;29.77;48.21
18201;BME280;9226;47.858;9.594;2023-07-29T10:07:39;94879.56;;;29.84;48.64
18201;BME280;9226;47.858;9.594;2023-07-29T10:10:06;94877.50;;;29.96;49.51
18201;BME280;9226;47.858;9.594;2023-07-29T10:12:32;94871.34;;;30.11;49.26
18201;BME280;9226;47.858;9.594;2023-07-29T10:15:05;94864.81;;;29.85;48.10
18201;BME280;9226;47.858;9.594;2023-07-29T10:17:36;94872.06;;;30.01;48.19
18201;BME280;9226;47.858;9.594;2023-07-29T10:20:04;94868.63;;;29.84;49.11
18201;BME280;9226;47.858;9.594;2023-07-29T10:22:36;94868.81;;;29.77;48.93
18201;BME280;9226;47.858;9.594;2023-07-29T10:25:11;94868.97;;;29.87;47.30
18201;BME280;9226;47.858;9.594;2023-07-29T10:27:43;94857.28;;;29.97;47.48
18201;BME280;9226;47.858;9.594;2023-07-29T10:30:12;94862.44;;;29.66;47.55
18201;BME280;9226;47.858;9.594;2023-07-29T10:32:43;94873.69;;;29.70;48.98
18201;BME280;9226;47.858;9.594;2023-07-29T10:35:13;94871.47;;;29.67;48.18
18201;BME280;9226;47.858;9.594;2023-07-29T10:37:39;94861.22;;;29.79;48.65
18201;BME280;9226;47.858;9.594;2023-07-29T10:40:09;94856.22;;;30.03;47.77
18201;BME280;9226;47.858;9.594;2023-07-29T10:42:36;94853.72;;;29.69;45.09
18201;BME280;9226;47.858;9.594;2023-07-29T10:45:18;94855.13;;;30.04;46.08
18201;BME280;9226;47.858;9.594;2023-07-29T10:47:45;94852.31;;;29.94;44.22
18201;BME280;9226;47.858;9.594;2023-07-29T10:50:20;94859.88;;;29.82;43.41
18201;BME280;9226;47.858;9.594;2023-07-29T10:52:50;94856.13;;;29.93;45.04
18201;BME280;9226;47.858;9.594;2023-07-29T10:57:50;94849.75;;;29.82;43.98
18201;BME280;9226;47.858;9.594;2023-07-29T11:00:15;94842.81;;;29.74;44.73
18201;BME280;9226;47.858;9.594;2023-07-29T11:02:41;94847.69;;;29.67;44.73
18201;BME280;9226;47.858;9.594;2023-07-29T11:05:16;94843.25;;;29.61;44.58
18201;BME280;9226;47.858;9.594;2023-07-29T11:07:47;94837.59;;;29.40;44.11
18201;BME280;9226;47.858;9.594;2023-07-29T11:10:14;94834.16;;;29.55;44.62
18201;BME280;9226;47.858;9.594;2023-07-29T11:12:42;94837.31;;;29.69;45.17
18201;BME280;9226;47.858;9.594;2023-07-29T11:17:41;94828.03;;;30.03;44.86
18201;BME280;9226;47.858;9.594;2023-07-29T11:20:08;94820.19;;;30.11;44.22
18201;BME280;9226;47.858;9.594;2023-07-29T11:22:34;94817.03;;;30.30;44.02
18201;BME280;9226;47.858;9.594;2023-07-29T11:24:59;94822.97;;;30.22;42.83
18201;BME280;9226;47.858;9.594;2023-07-29T11:27:25;94824.34;;;30.19;42.19
18201;BME280;9226;47.858;9.594;2023-07-29T11:29:50;94825.25;;;30.35;43.27
18201;BME280;9226;47.858;9.594;2023-07-29T11:32:21;94826.34;;;30.34;43.31
18201;BME280;9226;47.858;9.594;2023-07-29T11:34:46;94827.84;;;30.15;42.83
18201;BME280;9226;47.858;9.594;2023-07-29T11:37:12;94830.09;;;30.23;42.91
18201;BME280;9226;47.858;9.594;2023-07-29T11:39:41;94821.59;;;30.19;42.68
18201;BME280;9226;47.858;9.594;2023-07-29T11:42:10;94818.91;;;30.29;42.63
18201;BME280;9226;47.858;9.594;2023-07-29T11:44:36;94827.44;;;30.33;42.38
18201;BME280;9226;47.858;9.594;2023-07-29T11:47:01;94829.06;;;30.34;43.39
18201;BME280;9226;47.858;9.594;2023-07-29T11:49:27;94819.38;;;30.54;44.02
18201;BME280;9226;47.858;9.594;2023-07-29T11:51:53;94810.56;;;30.46;42.75
18201;BME280;9226;47.858;9.594;2023-07-29T11:54:19;94816.16;;;30.67;42.80
18201;BME280;9226;47.858;9.594;2023-07-29T11:56:47;94810.13;;;30.70;42.76
18201;BME280;9226;47.858;9.594;2023-07-29T11:59:12;94798.94;;;30.82;42.92
18201;BME280;9226;47.858;9.594;2023-07-29T12:01:38;94797.56;;;30.74;42.10
18201;BME280;9226;47.858;9.594;2023-07-29T12:04:04;94802.53;;;30.93;42.62
18201;BME280;9226;47.858;9.594;2023-07-29T12:06:29;94791.00;;;30.80;41.79
18201;BME280;9226;47.858;9.594;2023-07-29T12:08:56;94784.31;;;30.51;41.62
18201;BME280;9226;47.858;9.594;2023-07-29T12:11:22;94782.75;;;30.70;42.23
18201;BME280;9226;47.858;9.594;2023-07-29T12:13:48;94777.75;;;30.52;41.33
18201;BME280;9226;47.858;9.594;2023-07-29T12:16:16;94769.00;;;30.55;41.46
18201;BME280;9226;47.858;9.594;2023-07-29T12:18:43;94771.13;;;30.42;41.95
18201;BME280;9226;47.858;9.594;2023-07-29T12:21:08;94768.44;;;30.47;42.26
18201;BME280;9226;47.858;9.594;2023-07-29T12:23:33;94771.06;;;30.37;42.48
18201;BME280;9226;47.858;9.594;2023-07-29T12:25:59;94786.06;;;30.29;42.73
18201;BME280;9226;47.858;9.594;2023-07-29T12:28:26;94792.88;;;30.22;42.36
18201;BME280;9226;47.858;9.594;2023-07-29T12:30:57;94798.69;;;29.88;42.72
18201;BME280;9226;47.858;9.594;2023-07-29T12:33:33;94805.34;;;30.02;43.32
18201;BME280;9226;47.858;9.594;2023-07-29T12:35:59;94817.63;;;29.67;43.18
18201;BME280;9226;47.858;9.594;2023-07-29T12:38:28;94820.41;;;29.77;43.58
18201;BME280;9226;47.858;9.594;2023-07-29T12:40:54;94824.25;;;29.76;44.52
18201;BME280;9226;47.858;9.594;2023-07-29T12:43:19;94830.09;;;29.58;43.79
18201;BME280;9226;47.858;9.594;2023-07-29T12:45:45;94808.06;;;29.37;43.59
18201;BME280;9226;47.858;9.594;2023-07-29T12:48:11;94819.97;;;29.26;43.95
18201;BME280;9226;47.858;9.594;2023-07-29T12:50:37;94823.66;;;29.15;44.18
18201;BME280;9226;47.858;9.594;2023-07-29T12:53:04;94831.41;;;28.79;44.61
18201;BME280;9226;47.858;9.594;2023-07-29T12:55:30;94836.06;;;28.78;44.54
18201;BME280;9226;47.858;9.594;2023-07-29T12:57:55;94831.97;;;28.59;45.01
18201;BME280;9226;47.858;9.594;2023-07-29T13:00:21;94848.50;;;28.52;45.30
18201;BME280;9226;47.858;9.594;2023-07-29T13:02:46;94861.81;;;28.09;47.58
18201;BME280;9226;47.858;9.594;2023-07-29T13:05:12;94857.22;;;27.81;48.19
18201;BME280;9226;47.858;9.594;2023-07-29T13:07:39;94871.38;;;26.92;49.33
18201;BME280;9226;47.858;9.594;2023-07-29T13:10:04;94905.38;;;26.42;51.80
18201;BME280;9226;47.858;9.594;2023-07-29T13:12:30;94916.06;;;25.89;56.44
18201;BME280;9226;47.858;9.594;2023-07-29T13:14:56;94879.69;;;25.18;60.72
18201;BME280;9226;47.858;9.594;2023-07-29T13:17:22;94859.34;;;25.08;60.35